sensor_id;sensor_type;location;lat;lon;timestamp;P1;durP1;ratioP1;P2;durP2;ratioP2
9720;SDS011;4899;42.644;23.366;2024-01-30T00:01:17;7.87;;;6.17;;
9720;SDS011;4899;42.644;23.366;2024-01-30T00:03:42;7.20;;;5.93;;
9720;SDS011;4899;42.644;23.366;2024-01-30T00:06:08;6.67;;;5.80;;
9720;SDS011;4899;42.644;23.366;2024-01-30T00:08:33;7.97;;;6.10;;
9720;SDS011;4899;42.644;23.366;2024-01-30T00:10:58;9.10;;;6.37;;
9720;SDS011;4899;42.644;23.366;2024-01-30T00:13:24;8.90;;;6.13;;
9720;SDS011;4899;42.644;23.366;2024-01-30T00:15:49;7.60;;;5.97;;
9720;SDS011;4899;42.644;23.366;2024-01-30T00:18:14;7.20;;;5.70;;
9720;SDS011;4899;42.644;23.366;2024-01-30T00:20:40;6.83;;;5.00;;
9720;SDS011;4899;42.644;23.366;2024-01-30T00:23:05;7.47;;;5.63;;
9720;SDS011;4899;42.644;23.366;2024-01-30T00:25:31;8.40;;;5.73;;
9720;SDS011;4899;42.644;23.366;2024-01-30T00:27:58;6.97;;;5.43;;
9720;SDS011;4899;42.644;23.366;2024-01-30T00:30:23;6.63;;;5.30;;
9720;SDS011;4899;42.644;23.366;2024-01-30T00:32:49;8.43;;;5.67;;
9720;SDS011;4899;42.644;23.366;2024-01-30T00:35:14;6.13;;;5.20;;
9720;SDS011;4899;42.644;23.366;2024-01-30T00:37:39;5.87;;;5.00;;
9720;SDS011;4899;42.644;23.366;2024-01-30T00:40:05;5.97;;;4.83;;
9720;SDS011;4899;42.644;23.366;2024-01-30T00:42:31;6.53;;;5.30;;
9720;SDS011;4899;42.644;23.366;2024-01-30T00:44:57;6.20;;;5.27;;
9720;SDS011;4899;42.644;23.366;2024-01-30T00:47:23;6.23;;;4.80;;
9720;SDS011;4899;42.644;23.366;2024-01-30T00:49:48;8.43;;;5.13;;
9720;SDS011;4899;42.644;23.366;2024-01-30T00:52:13;8.83;;;5.77;;
9720;SDS011;4899;42.644;23.366;2024-01-30T00:54:38;6.90;;;5.30;;
9720;SDS011;4899;42.644;23.366;2024-01-30T00:57:04;10.23;;;6.97;;
9720;SDS011;4899;42.644;23.366;2024-01-30T00:59:29;8.47;;;5.77;;
9720;SDS011;4899;42.644;23.366;2024-01-30T01:01:55;8.10;;;5.67;;
9720;SDS011;4899;42.644;23.366;2024-01-30T01:04:20;10.40;;;5.73;;
9720;SDS011;4899;42.644;23.366;2024-01-30T01:06:46;6.73;;;4.83;;
9720;SDS011;4899;42.644;23.366;2024-01-30T01:09:12;6.00;;;5.00;;
9720;SDS011;4899;42.644;23.366;2024-01-30T01:11:37;6.20;;;4.63;;
9720;SDS011;4899;42.644;23.366;2024-01-30T01:14:03;7.77;;;5.33;;
9720;SDS011;4899;42.644;23.366;2024-01-30T01:16:28;9.13;;;5.37;;
9720;SDS011;4899;42.644;23.366;2024-01-30T01:18:54;6.10;;;4.57;;
9720;SDS011;4899;42.644;23.366;2024-01-30T01:21:19;6.80;;;4.97;;
9720;SDS011;4899;42.644;23.366;2024-01-30T01:23:44;7.13;;;5.17;;
9720;SDS011;4899;42.644;23.366;2024-01-30T01:26:10;6.90;;;4.67;;
9720;SDS011;4899;42.644;23.366;2024-01-30T01:28:35;6.97;;;5.57;;
9720;SDS011;4899;42.644;23.366;2024-01-30T01:31:00;9.17;;;6.13;;
9720;SDS011;4899;42.644;23.366;2024-01-30T01:33:30;7.63;;;5.50;;
9720;SDS011;4899;42.644;23.366;2024-01-30T01:35:57;8.17;;;5.73;;
9720;SDS011;4899;42.644;23.366;2024-01-30T01:38:22;9.17;;;5.67;;
9720;SDS011;4899;42.644;23.366;2024-01-30T01:40:47;8.07;;;6.00;;
9720;SDS011;4899;42.644;23.366;2024-01-30T01:43:13;8.63;;;5.93;;
9720;SDS011;4899;42.644;23.366;2024-01-30T01:45:38;6.27;;;5.03;;
9720;SDS011;4899;42.644;23.366;2024-01-30T01:48:03;9.97;;;5.47;;
9720;SDS011;4899;42.644;23.366;2024-01-30T01:50:29;7.30;;;5.70;;
9720;SDS011;4899;42.644;23.366;2024-01-30T01:52:54;6.77;;;5.33;;
9720;SDS011;4899;42.644;23.366;2024-01-30T01:55:20;5.50;;;4.37;;
9720;SDS011;4899;42.644;23.366;2024-01-30T01:57:52;7.70;;;4.60;;
9720;SDS011;4899;42.644;23.366;2024-01-30T02:00:17;7.10;;;5.10;;
9720;SDS011;4899;42.644;23.366;2024-01-30T02:02:44;6.07;;;4.90;;
9720;SDS011;4899;42.644;23.366;2024-01-30T02:05:10;6.93;;;5.30;;
9720;SDS011;4899;42.644;23.366;2024-01-30T02:07:36;6.47;;;4.83;;
9720;SDS011;4899;42.644;23.366;2024-01-30T02:10:01;6.77;;;5.23;;
9720;SDS011;4899;42.644;23.366;2024-01-30T02:12:26;5.67;;;4.57;;
9720;SDS011;4899;42.644;23.366;2024-01-30T02:14:52;6.90;;;5.17;;
9720;SDS011;4899;42.644;23.366;2024-01-30T02:17:18;6.07;;;5.03;;
9720;SDS011;4899;42.644;23.366;2024-01-30T02:19:44;6.97;;;5.33;;
9720;SDS011;4899;42.644;23.366;2024-01-30T02:22:09;7.80;;;5.17;;
9720;SDS011;4899;42.644;23.366;2024-01-30T02:24:34;8.20;;;5.10;;
9720;SDS011;4899;42.644;23.366;2024-01-30T02:27:00;7.07;;;5.50;;
9720;SDS011;4899;42.644;23.366;2024-01-30T02:29:25;5.97;;;5.10;;
9720;SDS011;4899;42.644;23.366;2024-01-30T02:31:50;6.00;;;5.03;;
9720;SDS011;4899;42.644;23.366;2024-01-30T02:34:16;5.57;;;4.80;;
9720;SDS011;4899;42.644;23.366;2024-01-30T02:36:44;5.13;;;4.23;;
9720;SDS011;4899;42.644;23.366;2024-01-30T02:39:09;6.10;;;4.10;;
9720;SDS011;4899;42.644;23.366;2024-01-30T02:41:35;4.67;;;3.83;;
9720;SDS011;4899;42.644;23.366;2024-01-30T02:44:00;4.57;;;4.03;;
9720;SDS011;4899;42.644;23.366;2024-01-30T02:46:25;5.10;;;4.10;;
9720;SDS011;4899;42.644;23.366;2024-01-30T02:48:51;6.60;;;4.60;;
9720;SDS011;4899;42.644;23.366;2024-01-30T02:51:16;4.73;;;3.60;;
9720;SDS011;4899;42.644;23.366;2024-01-30T02:53:41;4.60;;;4.13;;
9720;SDS011;4899;42.644;23.366;2024-01-30T02:56:07;6.43;;;4.20;;
9720;SDS011;4899;42.644;23.366;2024-01-30T02:58:35;6.23;;;4.87;;
9720;SDS011;4899;42.644;23.366;2024-01-30T03:01:00;6.27;;;4.67;;
9720;SDS011;4899;42.644;23.366;2024-01-30T03:03:25;5.43;;;4.27;;
9720;SDS011;4899;42.644;23.366;2024-01-30T03:05:51;4.93;;;4.50;;
9720;SDS011;4899;42.644;23.366;2024-01-30T03:08:16;5.77;;;4.47;;
9720;SDS011;4899;42.644;23.366;2024-01-30T03:10:41;6.37;;;4.53;;
9720;SDS011;4899;42.644;23.366;2024-01-30T03:13:06;5.30;;;4.80;;
9720;SDS011;4899;42.644;23.366;2024-01-30T03:15:32;5.63;;;4.10;;
9720;SDS011;4899;42.644;23.366;2024-01-30T03:17:57;4.87;;;3.90;;
9720;SDS011;4899;42.644;23.366;2024-01-30T03:20:22;5.07;;;4.47;;
9720;SDS011;4899;42.644;23.366;2024-01-30T03:22:48;5.17;;;3.90;;
9720;SDS011;4899;42.644;23.366;2024-01-30T03:25:13;6.87;;;4.60;;
9720;SDS011;4899;42.644;23.366;2024-01-30T03:27:38;4.80;;;3.80;;
9720;SDS011;4899;42.644;23.366;2024-01-30T03:30:04;5.43;;;4.07;;
9720;SDS011;4899;42.644;23.366;2024-01-30T03:32:29;5.13;;;4.20;;
9720;SDS011;4899;42.644;23.366;2024-01-30T03:34:55;5.23;;;4.40;;
9720;SDS011;4899;42.644;23.366;2024-01-30T03:37:20;7.50;;;4.10;;
9720;SDS011;4899;42.644;23.366;2024-01-30T03:39:45;4.10;;;3.63;;
9720;SDS011;4899;42.644;23.366;2024-01-30T03:42:11;6.63;;;4.90;;
9720;SDS011;4899;42.644;23.366;2024-01-30T03:44:36;5.53;;;3.70;;
9720;SDS011;4899;42.644;23.366;2024-01-30T03:47:01;7.27;;;4.30;;
9720;SDS011;4899;42.644;23.366;2024-01-30T03:49:26;5.77;;;4.70;;
9720;SDS011;4899;42.644;23.366;2024-01-30T03:51:52;6.23;;;4.40;;
9720;SDS011;4899;42.644;23.366;2024-01-30T03:54:17;6.60;;;4.67;;
9720;SDS011;4899;42.644;23.366;2024-01-30T03:56:42;4.63;;;3.80;;
9720;SDS011;4899;42.644;23.366;2024-01-30T03:59:08;6.17;;;3.50;;
9720;SDS011;4899;42.644;23.366;2024-01-30T04:01:33;4.03;;;3.23;;
9720;SDS011;4899;42.644;23.366;2024-01-30T04:03:58;4.67;;;3.50;;
9720;SDS011;4899;42.644;23.366;2024-01-30T04:06:24;3.93;;;3.50;;
9720;SDS011;4899;42.644;23.366;2024-01-30T04:08:49;4.17;;;3.77;;
9720;SDS011;4899;42.644;23.366;2024-01-30T04:11:14;4.43;;;4.03;;
9720;SDS011;4899;42.644;23.366;2024-01-30T04:13:40;5.17;;;3.80;;
9720;SDS011;4899;42.644;23.366;2024-01-30T04:16:07;4.17;;;3.37;;
9720;SDS011;4899;42.644;23.366;2024-01-30T04:18:33;5.07;;;3.30;;
9720;SDS011;4899;42.644;23.366;2024-01-30T04:20:59;3.87;;;3.10;;
9720;SDS011;4899;42.644;23.366;2024-01-30T04:23:24;6.13;;;3.77;;
9720;SDS011;4899;42.644;23.366;2024-01-30T04:25:49;4.10;;;3.37;;
9720;SDS011;4899;42.644;23.366;2024-01-30T04:28:15;4.83;;;3.87;;
9720;SDS011;4899;42.644;23.366;2024-01-30T04:30:40;4.17;;;3.77;;
9720;SDS011;4899;42.644;23.366;2024-01-30T04:33:05;4.53;;;3.50;;
9720;SDS011;4899;42.644;23.366;2024-01-30T04:35:31;4.40;;;3.27;;
9720;SDS011;4899;42.644;23.366;2024-01-30T04:37:56;4.87;;;3.90;;
9720;SDS011;4899;42.644;23.366;2024-01-30T04:40:22;3.70;;;3.40;;
9720;SDS011;4899;42.644;23.366;2024-01-30T04:42:47;4.63;;;4.10;;
9720;SDS011;4899;42.644;23.366;2024-01-30T04:45:12;4.57;;;3.50;;
9720;SDS011;4899;42.644;23.366;2024-01-30T04:47:37;4.77;;;3.90;;
9720;SDS011;4899;42.644;23.366;2024-01-30T04:50:04;4.60;;;4.07;;
9720;SDS011;4899;42.644;23.366;2024-01-30T04:52:29;4.53;;;3.60;;
9720;SDS011;4899;42.644;23.366;2024-01-30T04:54:55;4.53;;;3.87;;
9720;SDS011;4899;42.644;23.366;2024-01-30T04:57:20;3.87;;;3.43;;
9720;SDS011;4899;42.644;23.366;2024-01-30T04:59:45;5.53;;;3.60;;
9720;SDS011;4899;42.644;23.366;2024-01-30T05:02:11;5.90;;;4.67;;
9720;SDS011;4899;42.644;23.366;2024-01-30T05:04:36;5.53;;;4.23;;
9720;SDS011;4899;42.644;23.366;2024-01-30T05:07:02;5.90;;;4.40;;
9720;SDS011;4899;42.644;23.366;2024-01-30T05:09:27;5.57;;;4.63;;
9720;SDS011;4899;42.644;23.366;2024-01-30T05:11:54;9.13;;;4.50;;
9720;SDS011;4899;42.644;23.366;2024-01-30T05:14:19;5.27;;;3.73;;
9720;SDS011;4899;42.644;23.366;2024-01-30T05:16:45;5.37;;;4.07;;
9720;SDS011;4899;42.644;23.366;2024-01-30T05:19:12;5.47;;;4.03;;
9720;SDS011;4899;42.644;23.366;2024-01-30T05:21:38;5.07;;;4.20;;
9720;SDS011;4899;42.644;23.366;2024-01-30T05:24:03;5.97;;;4.87;;
9720;SDS011;4899;42.644;23.366;2024-01-30T05:26:28;6.13;;;4.90;;
9720;SDS011;4899;42.644;23.366;2024-01-30T05:28:54;6.67;;;4.63;;
9720;SDS011;4899;42.644;23.366;2024-01-30T05:31:19;7.07;;;5.47;;
9720;SDS011;4899;42.644;23.366;2024-01-30T05:33:44;6.17;;;5.23;;
9720;SDS011;4899;42.644;23.366;2024-01-30T05:36:11;9.43;;;6.03;;
9720;SDS011;4899;42.644;23.366;2024-01-30T05:38:37;5.97;;;5.17;;
9720;SDS011;4899;42.644;23.366;2024-01-30T05:41:02;6.27;;;4.73;;
9720;SDS011;4899;42.644;23.366;2024-01-30T05:43:27;5.90;;;5.03;;
9720;SDS011;4899;42.644;23.366;2024-01-30T05:45:53;11.63;;;5.60;;
9720;SDS011;4899;42.644;23.366;2024-01-30T05:48:18;6.20;;;4.47;;
9720;SDS011;4899;42.644;23.366;2024-01-30T05:50:43;6.80;;;4.77;;
9720;SDS011;4899;42.644;23.366;2024-01-30T05:53:10;6.67;;;5.10;;
9720;SDS011;4899;42.644;23.366;2024-01-30T05:55:35;5.80;;;4.70;;
9720;SDS011;4899;42.644;23.366;2024-01-30T05:58:00;6.53;;;4.90;;
9720;SDS011;4899;42.644;23.366;2024-01-30T06:00:26;6.13;;;4.63;;
9720;SDS011;4899;42.644;23.366;2024-01-30T06:02:51;7.97;;;5.07;;
9720;SDS011;4899;42.644;23.366;2024-01-30T06:05:17;5.07;;;4.50;;
9720;SDS011;4899;42.644;23.366;2024-01-30T06:07:42;6.67;;;4.63;;
9720;SDS011;4899;42.644;23.366;2024-01-30T06:10:07;7.53;;;4.70;;
9720;SDS011;4899;42.644;23.366;2024-01-30T06:12:34;10.47;;;5.03;;
9720;SDS011;4899;42.644;23.366;2024-01-30T06:14:59;9.03;;;4.40;;
9720;SDS011;4899;42.644;23.366;2024-01-30T06:17:24;5.23;;;3.83;;
9720;SDS011;4899;42.644;23.366;2024-01-30T06:19:50;4.73;;;3.70;;
9720;SDS011;4899;42.644;23.366;2024-01-30T06:22:15;5.53;;;3.70;;
9720;SDS011;4899;42.644;23.366;2024-01-30T06:24:41;4.70;;;3.40;;
9720;SDS011;4899;42.644;23.366;2024-01-30T06:27:06;3.30;;;3.00;;
9720;SDS011;4899;42.644;23.366;2024-01-30T06:29:32;5.03;;;3.73;;
9720;SDS011;4899;42.644;23.366;2024-01-30T06:31:57;6.00;;;4.03;;
9720;SDS011;4899;42.644;23.366;2024-01-30T06:34:22;7.60;;;3.93;;
9720;SDS011;4899;42.644;23.366;2024-01-30T06:36:47;8.53;;;4.53;;
9720;SDS011;4899;42.644;23.366;2024-01-30T06:39:13;4.40;;;3.63;;
9720;SDS011;4899;42.644;23.366;2024-01-30T06:41:38;4.57;;;3.60;;
9720;SDS011;4899;42.644;23.366;2024-01-30T06:44:03;4.13;;;2.97;;
9720;SDS011;4899;42.644;23.366;2024-01-30T06:46:31;5.03;;;3.47;;
9720;SDS011;4899;42.644;23.366;2024-01-30T06:48:57;5.73;;;3.50;;
9720;SDS011;4899;42.644;23.366;2024-01-30T06:51:22;6.60;;;3.73;;
9720;SDS011;4899;42.644;23.366;2024-01-30T06:53:48;6.63;;;3.57;;
9720;SDS011;4899;42.644;23.366;2024-01-30T06:56:13;6.17;;;3.47;;
9720;SDS011;4899;42.644;23.366;2024-01-30T06:58:39;4.27;;;2.53;;
9720;SDS011;4899;42.644;23.366;2024-01-30T07:01:04;5.40;;;2.70;;
9720;SDS011;4899;42.644;23.366;2024-01-30T07:03:29;5.13;;;3.00;;
9720;SDS011;4899;42.644;23.366;2024-01-30T07:05:55;3.97;;;2.97;;
9720;SDS011;4899;42.644;23.366;2024-01-30T07:08:20;5.13;;;2.63;;
9720;SDS011;4899;42.644;23.366;2024-01-30T07:10:45;5.23;;;3.60;;
9720;SDS011;4899;42.644;23.366;2024-01-30T07:13:11;3.67;;;2.20;;
9720;SDS011;4899;42.644;23.366;2024-01-30T07:15:36;3.13;;;2.57;;
9720;SDS011;4899;42.644;23.366;2024-01-30T07:18:02;4.33;;;2.67;;
9720;SDS011;4899;42.644;23.366;2024-01-30T07:20:28;3.10;;;2.33;;
9720;SDS011;4899;42.644;23.366;2024-01-30T07:22:55;2.60;;;2.40;;
9720;SDS011;4899;42.644;23.366;2024-01-30T07:25:20;2.17;;;1.90;;
9720;SDS011;4899;42.644;23.366;2024-01-30T07:27:46;3.37;;;2.10;;
9720;SDS011;4899;42.644;23.366;2024-01-30T07:30:12;4.47;;;2.53;;
9720;SDS011;4899;42.644;23.366;2024-01-30T07:32:37;2.47;;;2.17;;
9720;SDS011;4899;42.644;23.366;2024-01-30T07:35:03;3.80;;;2.07;;
9720;SDS011;4899;42.644;23.366;2024-01-30T07:37:28;2.10;;;1.90;;
9720;SDS011;4899;42.644;23.366;2024-01-30T07:39:53;2.37;;;2.00;;
9720;SDS011;4899;42.644;23.366;2024-01-30T07:42:19;2.50;;;2.10;;
9720;SDS011;4899;42.644;23.366;2024-01-30T07:44:44;2.30;;;2.10;;
9720;SDS011;4899;42.644;23.366;2024-01-30T07:47:09;2.03;;;1.83;;
9720;SDS011;4899;42.644;23.366;2024-01-30T07:49:35;4.73;;;1.90;;
9720;SDS011;4899;42.644;23.366;2024-01-30T07:52:00;3.07;;;2.17;;
9720;SDS011;4899;42.644;23.366;2024-01-30T07:54:25;4.13;;;2.40;;
9720;SDS011;4899;42.644;23.366;2024-01-30T07:56:51;3.33;;;2.37;;
9720;SDS011;4899;42.644;23.366;2024-01-30T07:59:16;2.67;;;2.47;;
9720;SDS011;4899;42.644;23.366;2024-01-30T08:01:42;4.87;;;2.97;;
9720;SDS011;4899;42.644;23.366;2024-01-30T08:04:07;2.93;;;2.33;;
9720;SDS011;4899;42.644;23.366;2024-01-30T08:06:32;3.67;;;2.97;;
9720;SDS011;4899;42.644;23.366;2024-01-30T08:08:58;4.20;;;3.37;;
9720;SDS011;4899;42.644;23.366;2024-01-30T08:11:24;7.07;;;3.00;;
9720;SDS011;4899;42.644;23.366;2024-01-30T08:13:55;4.80;;;3.30;;
9720;SDS011;4899;42.644;23.366;2024-01-30T08:16:20;3.80;;;2.60;;
9720;SDS011;4899;42.644;23.366;2024-01-30T08:18:45;4.97;;;3.73;;
9720;SDS011;4899;42.644;23.366;2024-01-30T08:21:11;2.87;;;2.40;;
9720;SDS011;4899;42.644;23.366;2024-01-30T08:23:38;3.30;;;2.87;;
9720;SDS011;4899;42.644;23.366;2024-01-30T08:26:03;3.50;;;2.70;;
9720;SDS011;4899;42.644;23.366;2024-01-30T08:28:29;3.17;;;2.50;;
9720;SDS011;4899;42.644;23.366;2024-01-30T08:30:54;4.23;;;3.07;;
9720;SDS011;4899;42.644;23.366;2024-01-30T08:33:19;5.57;;;3.07;;
9720;SDS011;4899;42.644;23.366;2024-01-30T08:35:45;5.47;;;3.60;;
9720;SDS011;4899;42.644;23.366;2024-01-30T08:38:10;4.23;;;3.53;;
9720;SDS011;4899;42.644;23.366;2024-01-30T08:40:37;4.53;;;3.43;;
9720;SDS011;4899;42.644;23.366;2024-01-30T08:43:03;15.27;;;10.30;;
9720;SDS011;4899;42.644;23.366;2024-01-30T08:45:29;6.17;;;4.87;;
9720;SDS011;4899;42.644;23.366;2024-01-30T08:47:55;4.40;;;4.00;;
9720;SDS011;4899;42.644;23.366;2024-01-30T08:50:20;4.10;;;3.47;;
9720;SDS011;4899;42.644;23.366;2024-01-30T08:52:46;5.17;;;3.17;;
9720;SDS011;4899;42.644;23.366;2024-01-30T08:55:11;3.33;;;3.03;;
9720;SDS011;4899;42.644;23.366;2024-01-30T08:57:37;4.27;;;3.53;;
9720;SDS011;4899;42.644;23.366;2024-01-30T09:00:02;3.83;;;3.13;;
9720;SDS011;4899;42.644;23.366;2024-01-30T09:02:31;3.50;;;3.20;;
9720;SDS011;4899;42.644;23.366;2024-01-30T09:04:56;5.20;;;3.67;;
9720;SDS011;4899;42.644;23.366;2024-01-30T09:07:22;5.07;;;3.33;;
9720;SDS011;4899;42.644;23.366;2024-01-30T09:09:47;6.00;;;4.10;;
9720;SDS011;4899;42.644;23.366;2024-01-30T09:12:12;4.90;;;3.63;;
9720;SDS011;4899;42.644;23.366;2024-01-30T09:14:39;3.90;;;3.50;;
9720;SDS011;4899;42.644;23.366;2024-01-30T09:17:04;5.17;;;3.50;;
9720;SDS011;4899;42.644;23.366;2024-01-30T09:19:30;6.07;;;3.50;;
9720;SDS011;4899;42.644;23.366;2024-01-30T09:21:55;3.47;;;3.17;;
9720;SDS011;4899;42.644;23.366;2024-01-30T09:24:21;5.80;;;3.60;;
9720;SDS011;4899;42.644;23.366;2024-01-30T09:26:46;4.47;;;3.63;;
9720;SDS011;4899;42.644;23.366;2024-01-30T09:29:11;4.70;;;3.80;;
9720;SDS011;4899;42.644;23.366;2024-01-30T09:31:37;4.50;;;3.87;;
9720;SDS011;4899;42.644;23.366;2024-01-30T09:34:02;7.90;;;3.57;;
9720;SDS011;4899;42.644;23.366;2024-01-30T09:36:28;5.23;;;3.97;;
9720;SDS011;4899;42.644;23.366;2024-01-30T09:38:53;4.30;;;3.90;;
9720;SDS011;4899;42.644;23.366;2024-01-30T09:41:19;4.73;;;3.93;;
9720;SDS011;4899;42.644;23.366;2024-01-30T09:43:47;4.73;;;4.10;;
9720;SDS011;4899;42.644;23.366;2024-01-30T09:46:16;5.27;;;3.77;;
9720;SDS011;4899;42.644;23.366;2024-01-30T09:48:42;4.47;;;4.03;;
9720;SDS011;4899;42.644;23.366;2024-01-30T09:51:10;4.40;;;3.97;;
9720;SDS011;4899;42.644;23.366;2024-01-30T09:53:36;5.63;;;4.47;;
9720;SDS011;4899;42.644;23.366;2024-01-30T09:56:02;4.67;;;3.90;;
9720;SDS011;4899;42.644;23.366;2024-01-30T09:58:27;5.60;;;4.20;;
9720;SDS011;4899;42.644;23.366;2024-01-30T10:00:53;5.20;;;4.50;;
9720;SDS011;4899;42.644;23.366;2024-01-30T10:03:19;3.43;;;3.00;;
9720;SDS011;4899;42.644;23.366;2024-01-30T10:05:46;3.83;;;3.20;;
9720;SDS011;4899;42.644;23.366;2024-01-30T10:08:15;4.63;;;4.23;;
9720;SDS011;4899;42.644;23.366;2024-01-30T10:10:45;4.17;;;3.60;;
9720;SDS011;4899;42.644;23.366;2024-01-30T10:13:10;5.43;;;3.67;;
9720;SDS011;4899;42.644;23.366;2024-01-30T10:15:36;4.10;;;3.70;;
9720;SDS011;4899;42.644;23.366;2024-01-30T10:18:04;4.53;;;3.83;;
9720;SDS011;4899;42.644;23.366;2024-01-30T10:20:31;7.13;;;3.70;;
9720;SDS011;4899;42.644;23.366;2024-01-30T10:22:57;4.50;;;3.23;;
9720;SDS011;4899;42.644;23.366;2024-01-30T10:25:22;4.33;;;3.50;;
9720;SDS011;4899;42.644;23.366;2024-01-30T10:27:52;5.40;;;3.10;;
9720;SDS011;4899;42.644;23.366;2024-01-30T10:30:18;3.03;;;2.73;;
9720;SDS011;4899;42.644;23.366;2024-01-30T10:32:43;3.47;;;2.80;;
9720;SDS011;4899;42.644;23.366;2024-01-30T10:35:09;3.00;;;2.80;;
9720;SDS011;4899;42.644;23.366;2024-01-30T10:37:34;3.97;;;2.87;;
9720;SDS011;4899;42.644;23.366;2024-01-30T10:40:02;7.40;;;3.03;;
9720;SDS011;4899;42.644;23.366;2024-01-30T10:42:29;3.33;;;3.13;;
9720;SDS011;4899;42.644;23.366;2024-01-30T10:44:58;3.10;;;2.83;;
9720;SDS011;4899;42.644;23.366;2024-01-30T10:47:29;3.80;;;3.10;;
9720;SDS011;4899;42.644;23.366;2024-01-30T10:49:55;4.87;;;3.17;;
9720;SDS011;4899;42.644;23.366;2024-01-30T10:52:21;4.00;;;3.57;;
9720;SDS011;4899;42.644;23.366;2024-01-30T10:54:47;5.60;;;3.40;;
9720;SDS011;4899;42.644;23.366;2024-01-30T10:57:14;3.60;;;3.30;;
9720;SDS011;4899;42.644;23.366;2024-01-30T10:59:40;3.83;;;3.30;;
9720;SDS011;4899;42.644;23.366;2024-01-30T11:02:06;7.13;;;4.47;;
9720;SDS011;4899;42.644;23.366;2024-01-30T11:04:38;4.20;;;3.20;;
9720;SDS011;4899;42.644;23.366;2024-01-30T11:07:16;2.87;;;2.57;;
9720;SDS011;4899;42.644;23.366;2024-01-30T11:09:48;4.13;;;3.00;;
9720;SDS011;4899;42.644;23.366;2024-01-30T11:12:14;3.60;;;3.10;;
9720;SDS011;4899;42.644;23.366;2024-01-30T11:14:39;3.50;;;3.20;;
9720;SDS011;4899;42.644;23.366;2024-01-30T11:17:05;3.23;;;2.93;;
9720;SDS011;4899;42.644;23.366;2024-01-30T11:19:30;3.67;;;3.10;;
9720;SDS011;4899;42.644;23.366;2024-01-30T11:21:56;7.00;;;3.30;;
9720;SDS011;4899;42.644;23.366;2024-01-30T11:24:22;3.37;;;3.10;;
9720;SDS011;4899;42.644;23.366;2024-01-30T11:26:56;3.33;;;2.90;;
9720;SDS011;4899;42.644;23.366;2024-01-30T11:29:26;3.53;;;3.23;;
9720;SDS011;4899;42.644;23.366;2024-01-30T11:31:55;4.30;;;3.10;;
9720;SDS011;4899;42.644;23.366;2024-01-30T11:34:21;3.87;;;2.77;;
9720;SDS011;4899;42.644;23.366;2024-01-30T11:36:52;5.37;;;3.40;;
9720;SDS011;4899;42.644;23.366;2024-01-30T11:39:20;2.97;;;2.70;;
9720;SDS011;4899;42.644;23.366;2024-01-30T11:41:46;3.80;;;3.40;;
9720;SDS011;4899;42.644;23.366;2024-01-30T11:44:11;3.87;;;3.57;;
9720;SDS011;4899;42.644;23.366;2024-01-30T11:46:36;4.90;;;3.20;;
9720;SDS011;4899;42.644;23.366;2024-01-30T11:49:02;4.20;;;3.80;;
9720;SDS011;4899;42.644;23.366;2024-01-30T11:51:27;3.40;;;2.83;;
9720;SDS011;4899;42.644;23.366;2024-01-30T11:53:53;5.13;;;3.03;;
9720;SDS011;4899;42.644;23.366;2024-01-30T11:56:18;3.27;;;2.97;;
9720;SDS011;4899;42.644;23.366;2024-01-30T11:58:43;3.47;;;3.17;;
9720;SDS011;4899;42.644;23.366;2024-01-30T12:01:09;3.30;;;3.00;;
9720;SDS011;4899;42.644;23.366;2024-01-30T12:03:35;2.90;;;2.70;;
9720;SDS011;4899;42.644;23.366;2024-01-30T12:06:00;3.63;;;3.03;;
9720;SDS011;4899;42.644;23.366;2024-01-30T12:08:28;2.80;;;2.60;;
9720;SDS011;4899;42.644;23.366;2024-01-30T12:10:59;3.20;;;2.93;;
9720;SDS011;4899;42.644;23.366;2024-01-30T12:13:27;3.30;;;3.00;;
9720;SDS011;4899;42.644;23.366;2024-01-30T12:15:52;4.30;;;3.17;;
9720;SDS011;4899;42.644;23.366;2024-01-30T12:18:18;5.10;;;3.03;;
9720;SDS011;4899;42.644;23.366;2024-01-30T12:20:44;3.40;;;3.10;;
9720;SDS011;4899;42.644;23.366;2024-01-30T12:23:09;3.80;;;3.30;;
9720;SDS011;4899;42.644;23.366;2024-01-30T12:25:36;3.37;;;3.17;;
9720;SDS011;4899;42.644;23.366;2024-01-30T12:28:02;3.50;;;3.20;;
9720;SDS011;4899;42.644;23.366;2024-01-30T12:30:27;4.27;;;3.40;;
9720;SDS011;4899;42.644;23.366;2024-01-30T12:32:53;5.50;;;3.80;;
9720;SDS011;4899;42.644;23.366;2024-01-30T12:35:19;3.77;;;3.47;;
9720;SDS011;4899;42.644;23.366;2024-01-30T12:37:45;4.20;;;3.40;;
9720;SDS011;4899;42.644;23.366;2024-01-30T12:40:11;5.10;;;3.60;;
9720;SDS011;4899;42.644;23.366;2024-01-30T12:42:39;3.50;;;3.20;;
9720;SDS011;4899;42.644;23.366;2024-01-30T12:45:05;3.90;;;3.60;;
9720;SDS011;4899;42.644;23.366;2024-01-30T12:47:30;4.00;;;3.67;;
9720;SDS011;4899;42.644;23.366;2024-01-30T12:49:56;3.60;;;3.30;;
9720;SDS011;4899;42.644;23.366;2024-01-30T12:52:21;3.63;;;3.40;;
9720;SDS011;4899;42.644;23.366;2024-01-30T12:54:47;4.17;;;3.83;;
9720;SDS011;4899;42.644;23.366;2024-01-30T12:57:13;3.67;;;3.37;;
9720;SDS011;4899;42.644;23.366;2024-01-30T12:59:38;4.33;;;3.67;;
9720;SDS011;4899;42.644;23.366;2024-01-30T13:02:04;4.20;;;3.27;;
9720;SDS011;4899;42.644;23.366;2024-01-30T13:04:29;3.70;;;3.40;;
9720;SDS011;4899;42.644;23.366;2024-01-30T13:06:55;3.83;;;3.50;;
9720;SDS011;4899;42.644;23.366;2024-01-30T13:09:20;3.53;;;3.17;;
9720;SDS011;4899;42.644;23.366;2024-01-30T13:11:46;5.50;;;3.57;;
9720;SDS011;4899;42.644;23.366;2024-01-30T13:14:11;3.83;;;3.53;;
9720;SDS011;4899;42.644;23.366;2024-01-30T13:16:36;4.20;;;3.80;;
9720;SDS011;4899;42.644;23.366;2024-01-30T13:19:02;4.47;;;3.97;;
9720;SDS011;4899;42.644;23.366;2024-01-30T13:21:28;4.00;;;3.60;;
9720;SDS011;4899;42.644;23.366;2024-01-30T13:23:53;4.47;;;3.80;;
9720;SDS011;4899;42.644;23.366;2024-01-30T13:26:20;4.13;;;3.83;;
9720;SDS011;4899;42.644;23.366;2024-01-30T13:28:45;4.00;;;3.40;;
9720;SDS011;4899;42.644;23.366;2024-01-30T13:31:10;4.50;;;3.90;;
9720;SDS011;4899;42.644;23.366;2024-01-30T13:33:36;5.03;;;4.07;;
9720;SDS011;4899;42.644;23.366;2024-01-30T13:36:01;4.37;;;3.97;;
9720;SDS011;4899;42.644;23.366;2024-01-30T13:38:26;4.67;;;4.27;;
9720;SDS011;4899;42.644;23.366;2024-01-30T13:40:52;4.60;;;4.27;;
9720;SDS011;4899;42.644;23.366;2024-01-30T13:43:17;4.93;;;4.53;;
9720;SDS011;4899;42.644;23.366;2024-01-30T13:45:43;5.53;;;4.70;;
9720;SDS011;4899;42.644;23.366;2024-01-30T13:48:08;4.83;;;4.07;;
9720;SDS011;4899;42.644;23.366;2024-01-30T13:50:33;4.93;;;4.53;;
9720;SDS011;4899;42.644;23.366;2024-01-30T13:52:59;5.27;;;4.83;;
9720;SDS011;4899;42.644;23.366;2024-01-30T13:55:24;4.87;;;4.47;;
9720;SDS011;4899;42.644;23.366;2024-01-30T13:57:50;4.70;;;3.90;;
9720;SDS011;4899;42.644;23.366;2024-01-30T14:00:15;4.37;;;3.83;;
9720;SDS011;4899;42.644;23.366;2024-01-30T14:02:41;3.87;;;3.57;;
9720;SDS011;4899;42.644;23.366;2024-01-30T14:05:07;4.50;;;4.10;;
9720;SDS011;4899;42.644;23.366;2024-01-30T14:07:32;4.63;;;4.23;;
9720;SDS011;4899;42.644;23.366;2024-01-30T14:09:57;4.20;;;3.90;;
9720;SDS011;4899;42.644;23.366;2024-01-30T14:12:23;4.23;;;3.83;;
9720;SDS011;4899;42.644;23.366;2024-01-30T14:14:48;4.73;;;3.97;;
9720;SDS011;4899;42.644;23.366;2024-01-30T14:17:13;4.60;;;4.20;;
9720;SDS011;4899;42.644;23.366;2024-01-30T14:19:39;4.40;;;4.00;;
9720;SDS011;4899;42.644;23.366;2024-01-30T14:22:04;4.47;;;3.90;;
9720;SDS011;4899;42.644;23.366;2024-01-30T14:24:29;4.77;;;4.37;;
9720;SDS011;4899;42.644;23.366;2024-01-30T14:26:55;4.77;;;4.37;;
9720;SDS011;4899;42.644;23.366;2024-01-30T14:29:20;5.87;;;4.53;;
9720;SDS011;4899;42.644;23.366;2024-01-30T14:31:45;4.53;;;4.13;;
9720;SDS011;4899;42.644;23.366;2024-01-30T14:34:11;5.03;;;4.50;;
9720;SDS011;4899;42.644;23.366;2024-01-30T14:36:37;4.83;;;4.33;;
9720;SDS011;4899;42.644;23.366;2024-01-30T14:39:02;7.57;;;4.53;;
9720;SDS011;4899;42.644;23.366;2024-01-30T14:41:28;4.17;;;3.77;;
9720;SDS011;4899;42.644;23.366;2024-01-30T14:43:53;4.30;;;3.90;;
9720;SDS011;4899;42.644;23.366;2024-01-30T14:46:19;4.63;;;4.07;;
9720;SDS011;4899;42.644;23.366;2024-01-30T14:48:45;4.77;;;3.90;;
9720;SDS011;4899;42.644;23.366;2024-01-30T14:51:10;4.97;;;4.47;;